sensor_id;sensor_type;location;lat;lon;timestamp;temperature;humidity
43528;DHT22;52359;42.658;23.320;2023-05-21T13:15:04;20.40;97.70
43528;DHT22;52359;42.658;23.320;2023-05-21T13:17:31;20.40;98.00
43528;DHT22;52359;42.658;23.320;2023-05-21T13:22:42;20.30;99.60
43528;DHT22;52359;42.658;23.320;2023-05-21T13:25:09;20.40;99.10
43528;DHT22;52359;42.658;23.320;2023-05-21T13:27:36;20.30;99.30
43528;DHT22;52359;42.658;23.320;2023-05-21T13:30:04;20.40;99.20
43528;DHT22;52359;42.658;23.320;2023-05-21T13:32:30;20.40;99.20
43528;DHT22;52359;42.658;23.320;2023-05-21T13:34:56;20.40;99.90
43528;DHT22;52359;42.658;23.320;2023-05-21T13:37:21;20.50;99.90
43528;DHT22;52359;42.658;23.320;2023-05-21T13:39:47;20.70;99.90
43528;DHT22;52359;42.658;23.320;2023-05-21T13:42:13;20.60;99.90
43528;DHT22;52359;42.658;23.320;2023-05-21T13:44:38;20.80;99.90
43528;DHT22;52359;42.658;23.320;2023-05-21T13:47:05;20.80;99.90
43528;DHT22;52359;42.658;23.320;2023-05-21T13:49:32;20.70;99.90
43528;DHT22;52359;42.658;23.320;2023-05-21T13:51:58;20.70;99.90
43528;DHT22;52359;42.658;23.320;2023-05-21T13:54:25;20.60;99.90
43528;DHT22;52359;42.658;23.320;2023-05-21T13:56:51;20.70;99.90
43528;DHT22;52359;42.658;23.320;2023-05-21T13:59:17;20.60;99.90
43528;DHT22;52359;42.658;23.320;2023-05-21T14:01:42;20.70;99.90
43528;DHT22;52359;42.658;23.320;2023-05-21T14:04:12;20.40;99.90
43528;DHT22;52359;42.658;23.320;2023-05-21T14:06:37;20.50;99.90
43528;DHT22;52359;42.658;23.320;2023-05-21T14:09:03;20.40;99.90
43528;DHT22;52359;42.658;23.320;2023-05-21T14:11:30;20.40;99.90
43528;DHT22;52359;42.658;23.320;2023-05-21T14:13:56;20.40;99.90
43528;DHT22;52359;42.658;23.320;2023-05-21T14:16:23;20.40;99.90
43528;DHT22;52359;42.658;23.320;2023-05-21T14:18:50;20.30;99.90
43528;DHT22;52359;42.658;23.320;2023-05-21T14:23:42;20.30;99.90
43528;DHT22;52359;42.658;23.320;2023-05-21T14:26:08;20.40;99.90
43528;DHT22;52359;42.658;23.320;2023-05-21T14:28:33;20.40;99.90
43528;DHT22;52359;42.658;23.320;2023-05-21T14:40:43;20.70;99.90
43528;DHT22;52359;42.658;23.320;2023-05-21T14:43:09;20.70;99.90
43528;DHT22;52359;42.658;23.320;2023-05-21T14:45:34;20.70;99.90
43528;DHT22;52359;42.658;23.320;2023-05-21T14:50:36;20.70;99.90
43528;DHT22;52359;42.658;23.320;2023-05-21T14:53:05;20.80;99.90
43528;DHT22;52359;42.658;23.320;2023-05-21T14:55:32;20.70;99.90
43528;DHT22;52359;42.658;23.320;2023-05-21T15:00:24;20.30;99.90
43528;DHT22;52359;42.658;23.320;2023-05-21T15:02:50;20.20;99.90
43528;DHT22;52359;42.658;23.320;2023-05-21T15:05:16;20.20;99.90
43528;DHT22;52359;42.658;23.320;2023-05-21T15:07:42;20.10;99.90
43528;DHT22;52359;42.658;23.320;2023-05-21T15:10:08;20.20;99.90
43528;DHT22;52359;42.658;23.320;2023-05-21T15:12:35;20.20;99.90
43528;DHT22;52359;42.658;23.320;2023-05-21T15:15:00;20.10;99.90
43528;DHT22;52359;42.658;23.320;2023-05-21T15:17:26;20.20;99.90
43528;DHT22;52359;42.658;23.320;2023-05-21T15:19:52;20.00;99.90
43528;DHT22;52359;42.658;23.320;2023-05-21T15:22:17;20.00;99.90
43528;DHT22;52359;42.658;23.320;2023-05-21T15:24:43;20.00;99.90
43528;DHT22;52359;42.658;23.320;2023-05-21T15:27:09;20.10;99.90
43528;DHT22;52359;42.658;23.320;2023-05-21T15:29:35;20.00;99.90
43528;DHT22;52359;42.658;23.320;2023-05-21T15:32:01;19.90;99.90
43528;DHT22;52359;42.658;23.320;2023-05-21T15:34:30;19.80;99.90
43528;DHT22;52359;42.658;23.320;2023-05-21T15:36:56;19.70;99.90
43528;DHT22;52359;42.658;23.320;2023-05-21T15:39:22;19.90;99.90
43528;DHT22;52359;42.658;23.320;2023-05-21T15:41:48;19.90;99.90
43528;DHT22;52359;42.658;23.320;2023-05-21T15:44:14;19.90;99.90
43528;DHT22;52359;42.658;23.320;2023-05-21T15:46:40;19.80;99.90
43528;DHT22;52359;42.658;23.320;2023-05-21T15:49:06;19.70;99.90
43528;DHT22;52359;42.658;23.320;2023-05-21T15:51:32;19.80;99.90
43528;DHT22;52359;42.658;23.320;2023-05-21T15:53:58;19.80;99.90
43528;DHT22;52359;42.658;23.320;2023-05-21T15:56:23;19.80;99.90
43528;DHT22;52359;42.658;23.320;2023-05-21T15:58:49;19.80;99.90
43528;DHT22;52359;42.658;23.320;2023-05-21T16:01:15;19.80;99.90
43528;DHT22;52359;42.658;23.320;2023-05-21T16:03:40;19.80;99.90
43528;DHT22;52359;42.658;23.320;2023-05-21T16:06:06;19.60;99.90
43528;DHT22;52359;42.658;23.320;2023-05-21T16:08:32;19.50;99.90
43528;DHT22;52359;42.658;23.320;2023-05-21T16:10:58;19.40;99.90
43528;DHT22;52359;42.658;23.320;2023-05-21T18:22:32;17.60;99.90
43528;DHT22;52359;42.658;23.320;2023-05-21T18:24:58;17.60;99.90
43528;DHT22;52359;42.658;23.320;2023-05-21T18:27:24;17.60;99.90
43528;DHT22;52359;42.658;23.320;2023-05-21T18:29:50;17.60;99.90
43528;DHT22;52359;42.658;23.320;2023-05-21T18:32:15;17.50;99.90
43528;DHT22;52359;42.658;23.320;2023-05-21T18:34:41;17.40;99.90
43528;DHT22;52359;42.658;23.320;2023-05-21T18:37:12;17.40;99.90
43528;DHT22;52359;42.658;23.320;2023-05-21T18:44:30;17.30;99.90
43528;DHT22;52359;42.658;23.320;2023-05-21T18:46:57;17.30;99.90
43528;DHT22;52359;42.658;23.320;2023-05-21T18:49:23;17.40;99.90
43528;DHT22;52359;42.658;23.320;2023-05-21T18:51:48;17.30;99.90
43528;DHT22;52359;42.658;23.320;2023-05-21T21:26:17;14.60;99.90
43528;DHT22;52359;42.658;23.320;2023-05-21T21:28:43;14.70;99.90
43528;DHT22;52359;42.658;23.320;2023-05-21T21:31:08;14.80;99.90
43528;DHT22;52359;42.658;23.320;2023-05-21T21:33:34;14.70;99.90
43528;DHT22;52359;42.658;23.320;2023-05-21T21:36:00;14.60;99.90
43528;DHT22;52359;42.658;23.320;2023-05-21T21:38:25;14.70;99.90
43528;DHT22;52359;42.658;23.320;2023-05-21T21:40:51;14.30;99.90
43528;DHT22;52359;42.658;23.320;2023-05-21T21:43:18;14.10;99.90
43528;DHT22;52359;42.658;23.320;2023-05-21T21:45:44;14.10;99.90
43528;DHT22;52359;42.658;23.320;2023-05-21T21:48:10;14.00;99.90
43528;DHT22;52359;42.658;23.320;2023-05-21T21:50:35;14.10;99.90
43528;DHT22;52359;42.658;23.320;2023-05-21T21:53:01;13.90;99.90
43528;DHT22;52359;42.658;23.320;2023-05-21T21:55:28;14.00;99.90
43528;DHT22;52359;42.658;23.320;2023-05-21T21:57:54;14.10;99.90
43528;DHT22;52359;42.658;23.320;2023-05-21T22:00:20;13.90;99.90
43528;DHT22;52359;42.658;23.320;2023-05-21T22:02:50;13.80;99.90
43528;DHT22;52359;42.658;23.320;2023-05-21T22:05:16;13.70;99.90
43528;DHT22;52359;42.658;23.320;2023-05-21T22:07:42;13.80;99.90
43528;DHT22;52359;42.658;23.320;2023-05-21T22:10:15;13.80;99.90
43528;DHT22;52359;42.658;23.320;2023-05-21T22:12:41;13.70;99.90
43528;DHT22;52359;42.658;23.320;2023-05-21T22:15:09;13.70;99.90
43528;DHT22;52359;42.658;23.320;2023-05-21T22:30:05;13.70;99.90
43528;DHT22;52359;42.658;23.320;2023-05-21T22:32:31;13.80;99.90
43528;DHT22;52359;42.658;23.320;2023-05-21T22:34:57;13.70;99.90
43528;DHT22;52359;42.658;23.320;2023-05-21T22:37:22;13.80;99.90
43528;DHT22;52359;42.658;23.320;2023-05-21T22:39:50;14.00;99.90
43528;DHT22;52359;42.658;23.320;2023-05-21T22:42:19;13.90;99.90
43528;DHT22;52359;42.658;23.320;2023-05-21T23:00:08;13.20;99.90
43528;DHT22;52359;42.658;23.320;2023-05-21T23:02:35;13.30;99.90
43528;DHT22;52359;42.658;23.320;2023-05-21T23:07:27;13.30;99.90
43528;DHT22;52359;42.658;23.320;2023-05-21T23:44:15;13.10;99.90
43528;DHT22;52359;42.658;23.320;2023-05-21T23:46:43;12.70;99.90
43528;DHT22;52359;42.658;23.320;2023-05-21T23:49:09;12.50;99.90
43528;DHT22;52359;42.658;23.320;2023-05-21T23:51:36;12.50;99.90
43528;DHT22;52359;42.658;23.320;2023-05-21T23:54:02;12.50;99.90
43528;DHT22;52359;42.658;23.320;2023-05-21T23:56:28;12.60;99.90
43528;DHT22;52359;42.658;23.320;2023-05-21T23:58:53;12.40;99.90
